Terminal Aerodrome Forecast
Issued by NWS

Home | Current Version | Previous Version | Text Only | Print | Product List | Glossary On
Versions: 1 2 3 4 5 6 7 8 9 10 11 12 13 14 15 16 17 18 19
000
FTUS43 KILX 232300
TAFBMI
TAF
KBMI 232320Z 2400/2424 02012KT P6SM SCT050
     FM240100 03008KT P6SM SKC
     FM241500 04009KT P6SM SCT040=

USA.gov is the U.S. government's official web portal to all federal, state and local government web resources and services.